• Join FlightAware (Why Join?)
  • Login
  • US Flag 
Trick or treat! (Boo!!) 
08:49AM EDT


 

Airport Tracker/Info


-or-


 

Live Flight TrackerFlight Track Log ✈ OPT905 ✈ 24-Sep-2013 ✈ KBOS - KCGF

Flight Track Log - Related Links

Times and Time Zones

All times are in EDT time to prevent confusion due to time zone crossing. See the OPT905 flight status page for this flight to view local times or setup timezone preferences in your user account.

Time Position Orientation Groundspeed Altitude Reporting Facility
EDT Latitude Longitude Course Direction KTS MPH feet Rate Location/Type
09:57PM 42.3667 -70.9667 277° West 190 219 700  Level KA90
09:59PM 42.4011 -70.8067 74° East 234 269 7,200 2,880 Climbing Boston Center
10:00PM 42.4653 -70.7683 24° Northeast 223 257 10,000 2,700 Climbing Boston Center
10:01PM 42.5306 -70.8200 330° Northwest 206 237 12,700 2,520 Climbing Boston Center
10:02PM 42.5736 -70.9092 303° West 229 264 15,000 2,400 Climbing Boston Center
10:03PM 42.3369 -71.7868 277° West  Level Estimated
10:03PM 42.6225 -70.9956 308° West 296 341 17,400  Level Boston Center
10:04PM 42.6822 -71.0958 309° West 310 357 19,800 2,160 Climbing Boston Center
10:05PM 42.7353 -71.1936 306° West 315 362 21,800 1,500 Climbing Boston Center
10:06PM 42.7867 -71.3056 302° West 329 379 22,900 1,320 Climbing Boston Center
10:07PM 42.8025 -71.4439 279° West 351 404 24,600 1,800 Climbing Boston Center
10:08PM 42.8097 -71.5742 274° West 357 411 26,500 1,920 Climbing Boston Center
10:09PM 42.8253 -71.7153 279° West 371 427 28,500 1,920 Climbing Boston Center
10:10PM 42.8367 -71.8542 276° West 371 427 30,400 1,980 Climbing Boston Center
10:11PM 42.8517 -71.9928 278° West 371 427 32,400 1,920 Climbing Boston Center
10:12PM 42.8628 -72.1314 276° West 371 427 34,300 1,860 Climbing Boston Center
10:13PM 42.8817 -72.2842 280° West 371 427 36,200 1,620 Climbing Boston Center
10:14PM 42.8922 -72.4231 276° West 371 427 37,700 840 Climbing Boston Center
10:15PM 42.9089 -72.5592 280° West 371 427 38,000 120 Climbing Boston Center
10:16PM 42.9108 -72.7036 271° West 371 427 38,000  Level Boston Center
10:17PM 42.9247 -72.8542 277° West 389 448 38,000  Level Boston Center
10:18PM 42.9347 -72.9733 277° West 394 453 38,000  Level Boston Center
10:19PM 42.9525 -73.1408 278° West 404 465 38,000  Level Boston Center
10:20PM 42.9642 -73.2942 276° West 410 472 38,000  Level Boston Center
10:21PM 42.9731 -73.4617 274° West 410 472 38,000  Level Boston Center
10:22PM 42.9861 -73.6208 276° West 410 472 38,000  Level Boston Center
10:23PM 42.9947 -73.7769 274° West 415 478 38,000  Level Boston Center
10:24PM 43.0097 -73.9336 278° West 420 483 38,000  Level Boston Center
10:25PM 43.0222 -74.0844 277° West 420 483 38,000  Level Boston Center
10:26PM 43.0344 -74.2381 276° West 415 478 38,000  Level Boston Center
10:27PM 43.0444 -74.3919 275° West 415 478 38,000  Level Boston Center
10:28PM 43.0564 -74.5428 276° West 409 471 38,000  Level Boston Center
10:29PM 43.0658 -74.6967 275° West 409 471 38,000  Level Boston Center
10:30PM 43.0772 -74.8506 276° West 409 471 38,000  Level Boston Center
10:31PM 43.0867 -74.9989 275° West 404 465 38,000  Level Boston Center
10:32PM 43.0956 -75.1528 275° West 404 465 38,000  Level Boston Center
10:33PM 43.1042 -75.3039 275° West 404 465 38,000  Level Boston Center
10:34PM 43.1150 -75.4581 276° West 409 471 38,000  Level Boston Center
10:35PM 43.1128 -75.6117 269° West 409 471 38,000  Level Boston Center
10:36PM 43.0814 -75.7633 254° West 404 465 38,000  Level Boston Center
10:37PM 43.0497 -75.9153 254° West 410 472 38,000  Level Boston Center
10:40PM 42.9725 -76.2786 254° West 413 475 38,000  Level Cleveland Center
10:41PM 42.9383 -76.4269 253° West 412 474 38,000  Level Cleveland Center
10:42PM 42.9053 -76.5761 253° West 411 473 38,000  Level Cleveland Center
10:43PM 42.8708 -76.7367 254° West 408 470 38,000  Level Cleveland Center
10:44PM 42.8372 -76.8842 253° West 409 471 38,000  Level Cleveland Center
10:45PM 42.8047 -77.0322 253° West 409 471 38,000  Level Cleveland Center
10:46PM 42.7706 -77.1792 252° West 409 471 38,000  Level Cleveland Center
10:47PM 42.7306 -77.3225 249° West 408 470 38,000  Level Cleveland Center
10:48PM 42.6875 -77.4656 248° West 409 471 38,000  Level Cleveland Center
10:49PM 42.6483 -77.5961 248° West 407 468 38,000  Level Cleveland Center
10:50PM 42.5967 -77.7658 248° West 406 467 38,000  Level Cleveland Center
10:51PM 42.5558 -77.9072 249° West 411 473 38,000 -120 Level Cleveland Center
10:52PM 42.5131 -78.0483 248° West 406 467 37,800 -960 Descending Cleveland Center
10:54PM 42.4239 -78.3378 247° West 426 490 35,100 -1,260 Descending Cleveland Center
10:55PM 42.3797 -78.4861 248° West 430 495 34,000 -600 Descending Cleveland Center
10:56PM 42.3344 -78.6317 247° West 424 488 34,000  Level Cleveland Center
10:57PM 42.2897 -78.7794 248° West 423 487 34,000  Level Cleveland Center
10:58PM 42.2394 -78.9436 248° West 426 490 34,000  Level Cleveland Center
10:59PM 42.1922 -79.0906 247° West 430 495 34,000  Level Cleveland Center
11:00PM 42.1461 -79.2369 247° West 431 496 34,000  Level Cleveland Center
11:01PM 42.1003 -79.3833 247° West 429 494 34,000 -600 Level Cleveland Center
11:02PM 42.0600 -79.5319 250° West 428 493 32,800 -1,680 Descending Cleveland Center
11:03PM 42.0272 -79.6869 254° West 434 499 30,600 -2,580 Descending Cleveland Center
11:04PM 41.9919 -79.8472 254° West 446 513 27,700 -3,120 Descending Cleveland Center
11:05PM 41.9553 -80.0178 254° West 451 519 24,400 -2,940 Descending Cleveland Center
11:06PM 41.9200 -80.1769 253° West 441 507 21,800 -2,460 Descending Cleveland Center
11:07PM 41.8878 -80.3236 254° West 412 474 19,400 -2,400 Descending Cleveland Center
11:08PM 41.8544 -80.4631 252° West 395 455 17,000 -2,460 Descending Cleveland Center
11:09PM 41.8247 -80.5983 254° West 379 436 14,500 -2,400 Descending Cleveland Center
11:10PM 41.7947 -80.7278 253° West 365 420 12,200 -2,340 Descending Cleveland Center
11:11PM 41.7781 -80.8119 255° West 337 388 10,900 -2,160 Descending Cleveland Center
11:11PM 41.7708 -80.8472 255° West 325 374 10,400 -1,500 Descending Cleveland Center
11:11PM 41.7636 -80.8656 242° Southwest 334 384 10,200 -1,140 Descending Cleveland Center
11:12PM 41.7475 -80.9531 256° West 283 326 9,300 -1,140 Descending Cleveland Center
11:12PM 41.7406 -80.9689 240° Southwest 294 338 9,100 -1,440 Descending Cleveland Center
11:13PM 41.7194 -81.0633 253° West 267 307 7,600 -1,620 Descending Cleveland Center
11:14PM 41.7042 -81.1425 256° West 261 300 6,200 -1,680 Descending Cleveland Center
11:14PM 41.6978 -81.1567 239° Southwest 263 303 5,900 -1,740 Descending Cleveland Center
11:15PM 41.6806 -81.2453 255° West 257 296 4,300 -1,680 Descending Cleveland Center
11:15PM 41.6769 -81.2472 202° Southwest 257 296 4,200 -780 Descending Cleveland Center
11:16PM 41.6539 -81.3431 252° West 257 296 3,500 -720 Descending Cleveland Center